Norfolk Downs, Massachusetts
Current Conditions -  °F | °C
As of 8:54 AM on Saturday 25 Oct 2014 (Local Time) from KBOS Reporting Station
Few Clouds Few Clouds  
Wind Chill: 50°   Ceiling: Unl
Heat Index: 50°   Visibility: 10mi
Dew Point: 39°   Wind: 9mph
Humidity: 66%   Direction: 270°W
Pressure: 29.75"   Gusts: 20mph
Location:  42.2866°N, 71.0248°W
Report Text: KBOS 251254Z 27008G17KT 10SM FEW140 10/04 A2975 RMK AO2 SLP074 T01000039
Loading
Personal Weather Stations






























Interactive Weather Map New forecast layout! Learn more

10-Day Weather Forecast

Advertisements
Track Severe Weather on mobile